createdAt,value
2023-02-20T00:01:12.219Z,8.70
2023-02-20T00:03:43.155Z,8.70
2023-02-20T00:06:14.308Z,8.60
2023-02-20T00:08:45.515Z,8.70
2023-02-20T00:11:16.476Z,8.70
2023-02-20T00:13:49.650Z,8.70
2023-02-20T00:16:21.925Z,8.70
2023-02-20T00:18:52.917Z,8.70
2023-02-20T00:21:23.858Z,8.70
2023-02-20T00:23:54.928Z,8.70
2023-02-20T00:26:25.988Z,8.70
2023-02-20T00:28:56.903Z,8.70
2023-02-20T00:31:27.904Z,8.60
2023-02-20T00:33:58.891Z,8.60
2023-02-20T00:36:30.026Z,8.60
2023-02-20T00:39:01.172Z,8.60
2023-02-20T00:41:32.109Z,8.50
2023-02-20T00:44:03.191Z,8.50
2023-02-20T00:46:34.348Z,8.50
2023-02-20T00:49:05.444Z,8.50
2023-02-20T00:51:36.514Z,8.50
2023-02-20T00:54:08.560Z,8.50
2023-02-20T00:56:40.732Z,8.50
2023-02-20T00:59:11.708Z,8.50
2023-02-20T01:01:42.707Z,8.40
2023-02-20T01:04:13.973Z,8.40
2023-02-20T01:06:45.100Z,8.40
2023-02-20T01:09:16.067Z,8.40
2023-02-20T01:11:47.483Z,8.30
2023-02-20T01:14:18.849Z,8.40
2023-02-20T01:16:51.661Z,8.50
2023-02-20T01:19:24.642Z,8.50
2023-02-20T01:21:55.527Z,8.50
2023-02-20T01:24:44.998Z,8.50
2023-02-20T01:27:16.384Z,8.40
2023-02-20T01:29:47.397Z,8.30
2023-02-20T01:32:18.528Z,8.30
2023-02-20T01:34:49.466Z,8.30
2023-02-20T01:37:20.721Z,8.30
2023-02-20T01:39:51.880Z,8.20
2023-02-20T01:42:25.426Z,8.30
2023-02-20T01:44:56.313Z,8.30
2023-02-20T01:47:27.238Z,8.20
2023-02-20T01:50:01.496Z,8.20
2023-02-20T01:52:34.418Z,8.20
2023-02-20T01:55:08.764Z,8.30
2023-02-20T01:57:42.842Z,8.30
2023-02-20T02:00:18.537Z,8.20
2023-02-20T02:02:52.662Z,8.10
2023-02-20T02:05:25.847Z,8.10
2023-02-20T02:07:58.010Z,8.00
2023-02-20T02:10:32.535Z,7.80
2023-02-20T02:13:04.638Z,7.90
2023-02-20T02:15:35.787Z,7.80
2023-02-20T02:18:23.719Z,7.70
2023-02-20T02:21:46.719Z,7.70
2023-02-20T02:24:48.682Z,7.70
2023-02-20T02:28:17.885Z,7.80
2023-02-20T02:31:37.825Z,7.80
2023-02-20T02:34:34.311Z,7.70
2023-02-20T02:37:10.983Z,7.60
2023-02-20T02:39:45.541Z,7.50
2023-02-20T02:42:19.519Z,7.50
2023-02-20T02:44:53.806Z,7.40
2023-02-20T02:47:27.641Z,7.50
2023-02-20T02:50:01.614Z,7.50
2023-02-20T02:52:41.919Z,7.50
2023-02-20T02:55:13.583Z,7.40
2023-02-20T02:57:44.502Z,7.60
2023-02-20T03:00:19.608Z,7.60
2023-02-20T03:02:54.735Z,7.70
2023-02-20T03:05:30.220Z,7.70
2023-02-20T03:08:01.582Z,7.60
2023-02-20T03:10:32.486Z,7.60
2023-02-20T03:13:06.166Z,7.60
2023-02-20T03:15:40.504Z,7.50
2023-02-20T03:18:21.503Z,7.50
2023-02-20T03:20:56.304Z,7.40
2023-02-20T03:23:31.702Z,7.20
2023-02-20T03:26:05.348Z,7.20
2023-02-20T03:28:39.088Z,7.20
2023-02-20T03:31:13.648Z,7.10
2023-02-20T03:34:05.341Z,7.00
2023-02-20T03:36:56.554Z,7.00
2023-02-20T03:39:47.869Z,6.90
2023-02-20T03:42:39.505Z,6.80
2023-02-20T03:45:14.894Z,6.90
2023-02-20T03:47:49.054Z,7.10
2023-02-20T03:50:20.557Z,7.10
2023-02-20T03:52:51.492Z,7.00
2023-02-20T03:55:24.331Z,6.90
2023-02-20T03:57:58.279Z,6.90
2023-02-20T04:00:32.242Z,6.80
2023-02-20T04:03:05.948Z,6.90
2023-02-20T04:05:39.759Z,6.90
2023-02-20T04:08:14.189Z,6.90
2023-02-20T04:10:48.502Z,6.90
2023-02-20T04:13:20.356Z,6.90
2023-02-20T04:15:53.232Z,7.00
2023-02-20T04:18:42.819Z,7.20
2023-02-20T04:21:17.338Z,7.20
2023-02-20T04:23:51.151Z,7.20
2023-02-20T04:26:24.575Z,7.20
2023-02-20T04:28:55.471Z,7.20
2023-02-20T04:31:27.234Z,7.20
2023-02-20T04:33:58.330Z,7.20
2023-02-20T04:36:29.559Z,7.20
2023-02-20T04:39:00.524Z,7.10
2023-02-20T04:41:31.995Z,7.00
2023-02-20T04:44:20.451Z,7.10
2023-02-20T04:47:11.359Z,7.10
2023-02-20T04:49:42.305Z,7.20
2023-02-20T04:52:13.244Z,7.20
2023-02-20T04:54:44.351Z,7.10
2023-02-20T04:57:15.355Z,7.20
2023-02-20T04:59:46.260Z,7.30
2023-02-20T05:02:17.582Z,7.10
2023-02-20T05:04:48.576Z,7.20
2023-02-20T05:07:38.428Z,7.30
2023-02-20T05:10:10.508Z,7.30
2023-02-20T05:12:41.421Z,7.30
2023-02-20T05:15:14.008Z,7.20
2023-02-20T05:17:45.165Z,7.10
2023-02-20T05:20:16.901Z,7.10
2023-02-20T05:22:49.718Z,7.00
2023-02-20T05:25:21.539Z,7.20
2023-02-20T05:27:52.494Z,7.10
2023-02-20T05:30:23.872Z,7.20
2023-02-20T05:32:54.924Z,7.30
2023-02-20T05:35:25.771Z,7.30
2023-02-20T05:37:56.797Z,7.20
2023-02-20T05:40:27.971Z,7.10
2023-02-20T05:42:59.078Z,7.30
2023-02-20T05:45:30.208Z,7.20
2023-02-20T05:48:01.192Z,7.20
2023-02-20T05:50:32.362Z,7.20
2023-02-20T05:53:03.380Z,7.10
2023-02-20T05:55:34.680Z,7.20
2023-02-20T05:58:05.607Z,7.10
2023-02-20T06:00:36.951Z,7.30
2023-02-20T06:03:11.034Z,7.20
2023-02-20T06:08:20.903Z,6.90
2023-02-20T06:10:52.242Z,6.80
2023-02-20T06:13:23.226Z,7.00
2023-02-20T06:15:54.255Z,7.00
2023-02-20T06:18:25.270Z,6.80
2023-02-20T06:20:57.078Z,6.80
2023-02-20T06:23:28.193Z,6.90
2023-02-20T06:25:58.988Z,6.90
2023-02-20T06:28:29.896Z,6.90
2023-02-20T06:31:02.265Z,6.80
2023-02-20T06:33:33.500Z,6.80
2023-02-20T06:36:05.262Z,7.00
2023-02-20T06:38:37.673Z,6.80
2023-02-20T06:41:08.664Z,6.70
2023-02-20T06:43:39.666Z,6.80
2023-02-20T06:46:10.902Z,6.70
2023-02-20T06:48:47.727Z,6.40
2023-02-20T06:51:21.042Z,6.50
2023-02-20T06:53:51.992Z,6.60
2023-02-20T06:56:25.684Z,6.60
2023-02-20T06:58:58.014Z,6.60
2023-02-20T07:01:31.127Z,6.60
2023-02-20T07:04:03.016Z,6.70
2023-02-20T07:06:34.292Z,6.70
2023-02-20T07:09:05.378Z,6.60
2023-02-20T07:11:36.631Z,6.60
2023-02-20T07:14:08.076Z,6.50
2023-02-20T07:16:44.872Z,6.70
2023-02-20T07:19:15.986Z,6.80
2023-02-20T07:21:48.987Z,6.80
2023-02-20T07:24:19.917Z,6.80
2023-02-20T07:26:51.910Z,6.80
2023-02-20T07:29:23.022Z,6.80
2023-02-20T07:31:54.186Z,6.80
2023-02-20T07:34:25.154Z,6.80
2023-02-20T07:36:56.074Z,7.00
2023-02-20T07:39:27.596Z,7.00
2023-02-20T07:41:58.702Z,7.00
2023-02-20T07:44:29.658Z,7.10
2023-02-20T07:47:00.637Z,7.10
2023-02-20T07:49:32.039Z,7.20
2023-02-20T07:52:03.155Z,7.20
2023-02-20T07:54:34.017Z,7.40
2023-02-20T07:57:05.531Z,7.50
2023-02-20T07:59:36.513Z,7.50
2023-02-20T08:02:08.042Z,7.40
2023-02-20T08:04:39.042Z,7.40
2023-02-20T08:07:10.201Z,7.50
2023-02-20T08:09:40.987Z,7.50
2023-02-20T08:12:11.982Z,7.70
2023-02-20T08:14:42.927Z,7.80
2023-02-20T08:17:14.129Z,7.90
2023-02-20T08:19:45.327Z,8.00
2023-02-20T08:22:16.186Z,8.20
2023-02-20T08:24:47.369Z,8.20
2023-02-20T08:27:21.466Z,8.30
2023-02-20T08:29:52.511Z,8.30
2023-02-20T08:32:23.575Z,8.40
2023-02-20T08:34:54.693Z,8.50
2023-02-20T08:37:25.753Z,8.50
2023-02-20T08:39:56.814Z,8.50
2023-02-20T08:42:27.971Z,8.70
2023-02-20T08:44:58.925Z,8.60
2023-02-20T08:47:29.743Z,8.80
2023-02-20T08:50:00.609Z,8.90
2023-02-20T08:52:35.825Z,8.80
2023-02-20T08:55:07.934Z,8.80
2023-02-20T08:57:38.878Z,8.80
2023-02-20T09:00:12.443Z,8.90
2023-02-20T09:02:45.052Z,9.00
2023-02-20T09:05:16.249Z,9.00
2023-02-20T09:07:47.363Z,9.10
2023-02-20T09:10:18.394Z,9.20
2023-02-20T09:12:49.664Z,9.20
2023-02-20T09:15:21.018Z,9.50
2023-02-20T09:17:52.662Z,9.60
2023-02-20T09:20:24.377Z,9.40
2023-02-20T09:22:58.127Z,9.50
2023-02-20T09:25:29.169Z,9.60
2023-02-20T09:28:00.110Z,9.80
2023-02-20T09:30:31.281Z,9.90
2023-02-20T09:33:02.349Z,9.70
2023-02-20T09:35:33.787Z,9.90
2023-02-20T09:38:04.850Z,10.00
2023-02-20T09:40:35.770Z,10.00
2023-02-20T09:43:18.631Z,10.10
2023-02-20T09:45:56.875Z,10.20
2023-02-20T09:48:46.446Z,10.00
2023-02-20T09:51:21.770Z,10.10
2023-02-20T09:53:58.101Z,10.30
2023-02-20T09:56:32.986Z,10.30
2023-02-20T09:59:08.375Z,10.30
2023-02-20T10:01:42.150Z,10.40
2023-02-20T10:04:17.522Z,10.50
2023-02-20T10:06:51.226Z,10.50
2023-02-20T10:09:22.443Z,10.80
2023-02-20T10:12:01.772Z,10.60
2023-02-20T10:17:41.855Z,10.90
2023-02-20T10:20:16.917Z,11.20
2023-02-20T10:22:53.495Z,11.30
2023-02-20T10:25:29.348Z,11.50
2023-02-20T10:28:04.388Z,11.50
2023-02-20T10:30:38.502Z,11.40
2023-02-20T10:33:24.712Z,11.60
2023-02-20T10:35:59.217Z,11.90
2023-02-20T10:38:33.197Z,11.70
2023-02-20T10:41:09.792Z,11.70
2023-02-20T10:43:44.315Z,11.90
2023-02-20T10:46:18.578Z,12.10
2023-02-20T10:48:50.136Z,12.20
2023-02-20T10:51:24.605Z,12.20
2023-02-20T10:53:59.338Z,12.20
2023-02-20T10:56:34.340Z,12.10
2023-02-20T10:59:08.367Z,12.30
2023-02-20T11:01:41.289Z,12.40
2023-02-20T11:04:15.855Z,12.30
2023-02-20T11:06:49.937Z,12.30
2023-02-20T11:09:21.004Z,12.60
2023-02-20T11:11:53.454Z,12.70
2023-02-20T11:14:39.908Z,12.50
2023-02-20T11:17:03.086Z,12.70
2023-02-20T11:19:37.198Z,12.90
2023-02-20T11:22:08.343Z,13.30
2023-02-20T11:24:41.451Z,13.20
2023-02-20T11:27:16.198Z,13.10
2023-02-20T11:29:55.947Z,13.40
2023-02-20T11:32:30.990Z,13.80
2023-02-20T11:35:29.477Z,13.40
2023-02-20T11:38:34.655Z,13.20
2023-02-20T11:41:26.613Z,13.50
2023-02-20T11:44:13.473Z,13.90
2023-02-20T11:46:44.932Z,13.70
2023-02-20T11:49:28.286Z,13.60
2023-02-20T11:52:10.087Z,13.70
2023-02-20T11:54:41.039Z,13.90
2023-02-20T11:57:27.133Z,14.80
2023-02-20T12:00:17.545Z,15.20
2023-02-20T12:02:55.033Z,14.80
2023-02-20T12:05:41.087Z,15.10
2023-02-20T12:08:52.981Z,15.60
2023-02-20T12:11:26.095Z,15.60
2023-02-20T12:13:59.755Z,15.50
2023-02-20T12:16:53.550Z,15.80
2023-02-20T12:19:28.859Z,15.80
2023-02-20T12:22:05.563Z,15.80
2023-02-20T12:24:58.532Z,16.00
2023-02-20T12:28:06.746Z,16.40
2023-02-20T12:30:51.700Z,16.20
2023-02-20T12:33:31.164Z,16.70
2023-02-20T12:36:06.075Z,16.80
2023-02-20T12:38:57.408Z,16.80
2023-02-20T12:41:37.692Z,16.90
2023-02-20T12:44:19.639Z,16.90
2023-02-20T12:46:57.438Z,17.00
2023-02-20T12:49:40.253Z,17.10
2023-02-20T12:52:15.995Z,16.90
2023-02-20T12:54:50.144Z,17.20
2023-02-20T12:57:24.025Z,17.60
2023-02-20T12:59:57.646Z,17.90
2023-02-20T13:02:41.263Z,17.60
2023-02-20T13:05:06.079Z,17.60
2023-02-20T13:07:40.486Z,16.70
2023-02-20T13:10:14.669Z,16.20
2023-02-20T13:12:45.542Z,17.00
2023-02-20T13:15:24.324Z,17.40
2023-02-20T13:17:58.280Z,17.60
2023-02-20T13:20:33.638Z,17.40
2023-02-20T13:23:06.764Z,17.70
2023-02-20T13:25:48.006Z,17.00
2023-02-20T13:28:45.316Z,17.10
2023-02-20T13:31:19.139Z,17.70
2023-02-20T13:33:51.821Z,18.10
2023-02-20T13:36:44.578Z,17.90
2023-02-20T13:39:52.350Z,17.70
2023-02-20T13:42:37.296Z,17.30
2023-02-20T13:45:41.654Z,17.10
2023-02-20T13:48:44.996Z,16.80
2023-02-20T13:51:39.126Z,16.70
2023-02-20T13:54:25.783Z,17.10
2023-02-20T13:57:04.772Z,17.20
2023-02-20T13:59:36.976Z,17.20
2023-02-20T14:02:21.332Z,17.30
2023-02-20T14:05:00.890Z,16.80
2023-02-20T14:07:41.376Z,17.10
2023-02-20T14:10:19.434Z,17.20
2023-02-20T14:12:56.771Z,17.50
2023-02-20T14:15:27.938Z,17.50
2023-02-20T14:18:00.040Z,17.20
2023-02-20T14:20:37.035Z,16.90
2023-02-20T14:23:13.717Z,16.50
2023-02-20T14:25:59.909Z,16.60
2023-02-20T14:28:18.359Z,16.80
2023-02-20T14:30:50.731Z,16.50
2023-02-20T14:33:27.057Z,16.00
2023-02-20T14:36:25.362Z,15.80
2023-02-20T14:39:07.814Z,15.80
2023-02-20T14:41:39.258Z,15.50
2023-02-20T14:44:18.649Z,15.40
2023-02-20T14:46:51.907Z,15.30
2023-02-20T14:49:29.060Z,15.10
2023-02-20T14:52:19.506Z,15.10
2023-02-20T14:55:01.158Z,15.00
2023-02-20T14:57:33.132Z,14.90
2023-02-20T15:00:26.666Z,15.00
2023-02-20T15:02:58.556Z,14.90
2023-02-20T15:05:32.911Z,14.70
2023-02-20T15:08:13.802Z,14.50
2023-02-20T15:10:47.060Z,14.30
2023-02-20T15:13:20.052Z,14.10
2023-02-20T15:15:54.154Z,14.20
2023-02-20T15:18:36.624Z,14.30
2023-02-20T15:21:09.597Z,14.40
2023-02-20T15:23:42.590Z,14.50
2023-02-20T15:26:34.709Z,14.60
2023-02-20T15:29:19.845Z,14.50
2023-02-20T15:31:58.262Z,14.00
2023-02-20T15:34:31.783Z,13.90
2023-02-20T15:37:03.777Z,13.70
2023-02-20T15:39:41.234Z,13.80
2023-02-20T15:42:13.688Z,13.70
2023-02-20T15:44:44.533Z,13.50
2023-02-20T15:47:15.770Z,13.40
2023-02-20T15:49:46.864Z,13.30
2023-02-20T15:52:21.594Z,13.40
2023-02-20T15:54:55.827Z,13.40
2023-02-20T15:57:27.146Z,13.30
2023-02-20T15:59:58.516Z,13.30
2023-02-20T16:02:29.586Z,13.40
2023-02-20T16:05:00.252Z,13.40
2023-02-20T16:07:31.636Z,13.30
2023-02-20T16:10:02.527Z,13.20
2023-02-20T16:12:34.033Z,13.40
2023-02-20T16:15:06.017Z,13.30
2023-02-20T16:17:38.046Z,13.30
2023-02-20T16:20:19.664Z,13.20
2023-02-20T16:22:50.656Z,13.20
2023-02-20T16:25:23.518Z,13.40
2023-02-20T16:27:56.920Z,13.30
2023-02-20T16:30:33.894Z,13.30
2023-02-20T16:33:04.787Z,13.30
2023-02-20T16:35:35.899Z,13.30
2023-02-20T16:38:06.506Z,13.00
2023-02-20T16:40:37.739Z,12.80
2023-02-20T16:43:09.045Z,12.70
2023-02-20T16:45:41.314Z,12.70
2023-02-20T16:48:16.292Z,12.60
2023-02-20T16:50:49.083Z,12.50
2023-02-20T16:53:20.473Z,12.50
2023-02-20T16:55:53.255Z,12.40
2023-02-20T16:58:24.382Z,12.20
2023-02-20T17:00:57.918Z,12.30
2023-02-20T17:03:28.750Z,12.20
2023-02-20T17:06:00.305Z,12.10
2023-02-20T17:08:31.704Z,12.00
2023-02-20T17:11:02.684Z,11.90
2023-02-20T17:13:33.560Z,11.80
2023-02-20T17:16:04.642Z,11.60
2023-02-20T17:18:35.634Z,11.40
2023-02-20T17:21:08.990Z,11.40
2023-02-20T17:23:39.983Z,11.40
2023-02-20T17:26:13.870Z,11.30
2023-02-20T17:28:45.007Z,11.20
2023-02-20T17:31:16.253Z,11.10
2023-02-20T17:33:47.329Z,11.10
2023-02-20T17:36:18.246Z,11.00
2023-02-20T17:38:50.909Z,10.70
2023-02-20T17:41:21.745Z,10.70
2023-02-20T17:43:52.834Z,10.70
2023-02-20T17:46:24.964Z,10.80
2023-02-20T17:48:57.895Z,10.50
2023-02-20T17:51:29.237Z,10.40
2023-02-20T17:54:00.706Z,10.30
2023-02-20T17:56:32.158Z,10.30
2023-02-20T17:59:03.277Z,10.30
2023-02-20T18:01:34.470Z,10.30
2023-02-20T18:04:06.369Z,10.30
2023-02-20T18:06:38.975Z,10.30
2023-02-20T18:09:10.859Z,10.60
2023-02-20T18:11:43.074Z,10.40
2023-02-20T18:14:14.971Z,10.30
2023-02-20T18:16:47.608Z,10.30
2023-02-20T18:19:19.005Z,10.10
2023-02-20T18:21:51.552Z,9.90
2023-02-20T18:24:25.563Z,9.70
2023-02-20T18:26:57.704Z,9.40
2023-02-20T18:29:30.211Z,9.30
2023-02-20T18:32:01.716Z,9.30
2023-02-20T18:34:32.693Z,9.10
2023-02-20T18:37:05.342Z,9.10
2023-02-20T18:39:36.297Z,9.20
2023-02-20T18:42:07.522Z,9.10
2023-02-20T18:44:38.535Z,9.00
2023-02-20T18:47:10.570Z,9.00
2023-02-20T18:49:41.461Z,9.10
2023-02-20T18:54:51.540Z,9.30
2023-02-20T18:57:24.135Z,9.00
2023-02-20T18:59:56.619Z,8.70
2023-02-20T19:02:28.217Z,8.80
2023-02-20T19:04:59.781Z,8.60
2023-02-20T19:07:31.365Z,8.60
2023-02-20T19:10:02.994Z,8.50
2023-02-20T19:12:34.380Z,8.60
2023-02-20T19:15:07.161Z,8.50
2023-02-20T19:17:39.133Z,8.40
2023-02-20T19:20:17.836Z,8.20
2023-02-20T19:22:49.778Z,8.10
2023-02-20T19:25:23.393Z,8.20
2023-02-20T19:27:55.126Z,8.20
2023-02-20T19:30:27.128Z,8.10
2023-02-20T19:32:58.622Z,8.10
2023-02-20T19:35:29.665Z,8.10
2023-02-20T19:38:00.553Z,8.10
2023-02-20T19:40:31.758Z,8.00
2023-02-20T19:43:03.337Z,8.00
2023-02-20T19:45:35.685Z,7.90
2023-02-20T19:48:07.426Z,7.80
2023-02-20T19:50:38.559Z,7.80
2023-02-20T19:53:10.669Z,7.80
2023-02-20T19:55:42.407Z,7.70
2023-02-20T19:58:14.620Z,7.60
2023-02-20T20:00:45.863Z,7.60
2023-02-20T20:03:18.189Z,7.60
2023-02-20T20:05:50.852Z,7.60
2023-02-20T20:08:22.987Z,7.60
2023-02-20T20:10:54.286Z,7.70
2023-02-20T20:13:25.931Z,7.80
2023-02-20T20:15:57.185Z,7.80
2023-02-20T20:18:28.520Z,7.80
2023-02-20T20:20:59.531Z,7.70
2023-02-20T20:23:30.839Z,7.70
2023-02-20T20:26:03.258Z,7.70
2023-02-20T20:28:37.561Z,7.70
2023-02-20T20:31:11.572Z,7.70
2023-02-20T20:33:43.694Z,7.60
2023-02-20T20:36:15.315Z,7.50
2023-02-20T20:38:47.925Z,7.50
2023-02-20T20:41:18.912Z,7.50
2023-02-20T20:43:50.865Z,7.40
2023-02-20T20:46:22.386Z,7.40
2023-02-20T20:48:53.388Z,7.20
2023-02-20T20:51:25.085Z,7.10
2023-02-20T20:53:56.072Z,7.10
2023-02-20T20:56:28.259Z,7.20
2023-02-20T20:58:59.114Z,7.20
2023-02-20T21:01:30.181Z,7.20
2023-02-20T21:04:01.045Z,7.30
2023-02-20T21:06:31.954Z,7.40
2023-02-20T21:09:03.019Z,7.50
2023-02-20T21:11:35.559Z,7.30
2023-02-20T21:14:06.945Z,7.10
2023-02-20T21:16:38.035Z,7.00
2023-02-20T21:19:09.345Z,6.90
2023-02-20T21:21:40.323Z,7.00
2023-02-20T21:24:11.818Z,7.10
2023-02-20T21:26:42.702Z,7.00
2023-02-20T21:29:13.686Z,6.80
2023-02-20T21:31:45.572Z,6.90
2023-02-20T21:34:17.329Z,7.10
2023-02-20T21:36:58.923Z,7.00
2023-02-20T21:39:30.073Z,6.80
2023-02-20T21:42:18.493Z,6.80
2023-02-20T21:44:49.535Z,7.00
2023-02-20T21:47:21.473Z,7.00
2023-02-20T21:49:53.425Z,7.10
2023-02-20T21:52:24.589Z,7.00
2023-02-20T21:54:56.204Z,6.90
2023-02-20T21:57:27.824Z,6.90
2023-02-20T21:59:57.649Z,6.80
2023-02-20T22:02:27.515Z,6.70
2023-02-20T22:04:57.405Z,6.60
2023-02-20T22:07:46.010Z,6.50
2023-02-20T22:10:34.734Z,6.50
2023-02-20T22:13:23.111Z,6.50
2023-02-20T22:16:12.119Z,6.40
2023-02-20T22:19:00.731Z,6.40
2023-02-20T22:21:49.491Z,6.40
2023-02-20T22:24:39.214Z,6.30
2023-02-20T22:27:29.259Z,6.20
2023-02-20T22:30:18.255Z,6.10
2023-02-20T22:33:06.576Z,6.10
2023-02-20T22:35:54.994Z,6.00
2023-02-20T22:39:01.788Z,5.90
2023-02-20T22:41:49.833Z,5.90
2023-02-20T22:44:38.585Z,6.00
2023-02-20T22:47:26.777Z,6.10
2023-02-20T22:50:15.278Z,6.30
2023-02-20T22:53:22.442Z,6.30
2023-02-20T22:56:15.117Z,6.40
2023-02-20T22:59:03.366Z,6.60
2023-02-20T23:01:52.342Z,6.50
2023-02-20T23:04:40.672Z,6.40
2023-02-20T23:07:48.063Z,6.10
2023-02-20T23:10:36.822Z,6.00
2023-02-20T23:13:25.371Z,5.80
2023-02-20T23:16:14.150Z,5.90
2023-02-20T23:19:03.099Z,5.70
2023-02-20T23:21:51.848Z,5.70
2023-02-20T23:24:40.468Z,5.70
2023-02-20T23:27:28.907Z,5.80
2023-02-20T23:30:17.526Z,5.90
2023-02-20T23:33:05.842Z,5.90
2023-02-20T23:35:54.496Z,5.80
2023-02-20T23:38:42.737Z,5.70
2023-02-20T23:41:31.391Z,5.60
2023-02-20T23:44:20.250Z,5.50
2023-02-20T23:47:08.903Z,5.50
2023-02-20T23:49:57.554Z,5.50
2023-02-20T23:52:45.903Z,5.40
2023-02-20T23:55:35.070Z,5.40
2023-02-20T23:58:23.420Z,5.40
